Terminal Aerodrome Forecast
Issued by NWS Greer, SC

Home | Current Version | Previous Version | Text Only | Print | Product List | Glossary On
Versions: 1 2 3 4 5 6 7 8 9 10 11 12 13 14 15 16 17 18 19 20 21 22 23 24 25 26 27
000
FTUS42 KGSP 171100
TAFGSP
TAF
KGSP 171127Z 1712/1812 03005KT P6SM SCT008 BKN050
      TEMPO 1712/1713 BKN008 OVC050
     FM171300 03005KT P6SM BKN020
     FM171800 04005KT P6SM BKN035
     FM172100 03006KT P6SM SCT050=

USA.gov is the U.S. government's official web portal to all federal, state and local government web resources and services.